Ophelia, Virginia
Current Conditions -  °F | °C
As of 6:53 PM on Tuesday 25 Nov 2014 (Local Time) from KNUI Reporting Station
Few Clouds Few Clouds  
Wind Chill: 49°   Ceiling: Unl
Heat Index: 49°   Visibility: 10mi
Dew Point: 39°   Wind: 0mph
Humidity: 69%   Direction: NA
Pressure: 30.11"   Gusts: NA
Location:  37.91°N, 76.28°W
Report Text: KNUI 252353Z AUTO 00000KT 10SM FEW060 09/04 A3011 RMK AO2 SLP195 T00940039 10133 20094 53017
Loading
Personal Weather Stations






























Interactive Weather Map New forecast layout! Learn more

10-Day Weather Forecast

Advertisements
Track Severe Weather on mobile